createdAt,value
2018-09-12T00:00:37.913Z,99.90
2018-09-12T00:03:06.246Z,99.90
2018-09-12T00:05:34.554Z,99.90
2018-09-12T00:08:02.850Z,99.90
2018-09-12T00:10:31.122Z,99.90
2018-09-12T00:12:59.356Z,99.90
2018-09-12T00:15:27.723Z,99.90
2018-09-12T00:17:55.962Z,99.90
2018-09-12T00:20:24.237Z,99.90
2018-09-12T00:22:52.657Z,99.90
2018-09-12T00:25:20.937Z,99.90
2018-09-12T00:27:49.195Z,99.90
2018-09-12T00:30:17.494Z,99.90
2018-09-12T00:32:45.729Z,99.90
2018-09-12T00:35:14.251Z,99.90
2018-09-12T00:37:42.500Z,99.90
2018-09-12T00:40:10.757Z,99.90
2018-09-12T00:42:39.002Z,99.90
2018-09-12T00:45:07.338Z,99.90
2018-09-12T00:47:35.582Z,99.90
2018-09-12T00:50:03.871Z,99.90
2018-09-12T00:52:32.156Z,99.90
2018-09-12T00:55:00.414Z,99.90
2018-09-12T00:57:28.746Z,99.90
2018-09-12T00:59:57.134Z,99.90
2018-09-12T01:02:25.614Z,99.90
2018-09-12T01:04:53.956Z,99.90
2018-09-12T01:07:22.219Z,99.90
2018-09-12T01:09:50.469Z,99.90
2018-09-12T01:12:18.754Z,99.90
2018-09-12T01:14:47.026Z,99.90
2018-09-12T01:17:15.314Z,99.90
2018-09-12T01:19:44.992Z,99.90
2018-09-12T01:22:13.310Z,99.90
2018-09-12T01:24:41.557Z,99.90
2018-09-12T01:27:09.850Z,99.90
2018-09-12T01:29:38.198Z,99.90
2018-09-12T01:32:06.467Z,99.90
2018-09-12T01:34:34.710Z,99.90
2018-09-12T01:37:02.981Z,99.90
2018-09-12T01:39:31.223Z,99.90
2018-09-12T01:41:59.574Z,99.90
2018-09-12T01:44:27.834Z,99.90
2018-09-12T01:46:56.137Z,99.90
2018-09-12T01:49:24.438Z,99.90
2018-09-12T01:51:52.712Z,99.90
2018-09-12T01:54:20.971Z,99.90
2018-09-12T01:56:49.257Z,99.90
2018-09-12T01:59:17.629Z,99.90
2018-09-12T02:01:46.196Z,99.90
2018-09-12T02:04:14.593Z,99.90
2018-09-12T02:06:42.885Z,99.90
2018-09-12T02:09:14.017Z,99.90
2018-09-12T02:11:42.315Z,99.90
2018-09-12T02:14:10.601Z,99.90
2018-09-12T02:16:38.901Z,99.90
2018-09-12T02:19:07.181Z,99.90
2018-09-12T02:21:35.492Z,99.90
2018-09-12T02:24:03.737Z,99.90
2018-09-12T02:26:32.031Z,99.90
2018-09-12T02:29:00.339Z,99.90
2018-09-12T02:31:28.589Z,99.90
2018-09-12T02:33:56.825Z,99.90
2018-09-12T02:36:29.264Z,99.90
2018-09-12T02:38:58.758Z,99.90
2018-09-12T02:41:27.021Z,99.90
2018-09-12T02:43:55.638Z,99.90
2018-09-12T02:46:24.063Z,99.90
2018-09-12T02:48:52.609Z,99.90
2018-09-12T02:51:20.893Z,99.90
2018-09-12T02:53:49.126Z,99.90
2018-09-12T02:56:17.739Z,99.90
2018-09-12T02:58:46.217Z,99.90
2018-09-12T03:01:14.599Z,99.90
2018-09-12T03:03:43.080Z,99.90
2018-09-12T03:06:11.395Z,99.90
2018-09-12T03:08:39.658Z,99.90
2018-09-12T03:11:07.919Z,99.90
2018-09-12T03:13:36.394Z,99.90
2018-09-12T03:16:04.671Z,99.90
2018-09-12T03:18:32.936Z,99.90
2018-09-12T03:21:01.460Z,99.90
2018-09-12T03:23:29.709Z,99.90
2018-09-12T03:25:57.928Z,99.90
2018-09-12T03:28:26.265Z,99.90
2018-09-12T03:30:54.499Z,99.90
2018-09-12T03:33:22.768Z,99.90
2018-09-12T03:35:51.036Z,99.90
2018-09-12T03:38:19.380Z,99.90
2018-09-12T03:40:47.855Z,99.90
2018-09-12T03:43:16.114Z,99.90
2018-09-12T03:45:44.346Z,99.90
2018-09-12T03:48:12.760Z,99.90
2018-09-12T03:50:40.942Z,99.90
2018-09-12T03:53:09.238Z,99.90
2018-09-12T03:55:37.473Z,99.90
2018-09-12T03:58:05.908Z,99.90
2018-09-12T04:00:34.182Z,99.90
2018-09-12T04:03:02.454Z,99.90
2018-09-12T04:05:30.682Z,99.90
2018-09-12T04:07:59.053Z,99.90
2018-09-12T04:10:27.292Z,99.90
2018-09-12T04:12:55.542Z,99.90
2018-09-12T04:15:23.809Z,99.90
2018-09-12T04:17:52.065Z,99.90
2018-09-12T04:20:20.317Z,99.90
2018-09-12T04:22:48.685Z,99.90
2018-09-12T04:25:16.949Z,99.90
2018-09-12T04:27:45.352Z,99.90
2018-09-12T04:30:20.084Z,99.90
2018-09-12T04:32:48.332Z,99.90
2018-09-12T04:35:16.616Z,99.90
2018-09-12T04:37:44.898Z,99.90
2018-09-12T04:40:13.135Z,99.90
2018-09-12T04:42:41.473Z,99.90
2018-09-12T04:45:09.676Z,99.90
2018-09-12T04:47:37.923Z,99.90
2018-09-12T04:50:07.272Z,99.90
2018-09-12T04:52:35.535Z,99.90
2018-09-12T04:55:03.807Z,99.90
2018-09-12T04:57:32.104Z,99.90
2018-09-12T05:00:00.348Z,99.90
2018-09-12T05:02:28.601Z,99.90
2018-09-12T05:04:56.937Z,99.90
2018-09-12T05:07:25.244Z,99.90
2018-09-12T05:09:53.483Z,99.90
2018-09-12T05:12:21.782Z,99.90
2018-09-12T05:14:50.070Z,99.90
2018-09-12T05:17:18.325Z,99.90
2018-09-12T05:19:46.637Z,99.90
2018-09-12T05:22:14.897Z,99.90
2018-09-12T05:24:43.295Z,99.90
2018-09-12T05:27:11.589Z,99.90
2018-09-12T05:29:39.955Z,99.90
2018-09-12T05:32:08.222Z,99.90
2018-09-12T05:34:36.481Z,99.90
2018-09-12T05:37:04.754Z,99.90
2018-09-12T05:39:33.021Z,99.90
2018-09-12T05:42:01.318Z,99.90
2018-09-12T05:44:29.617Z,99.90
2018-09-12T05:46:57.878Z,99.90
2018-09-12T05:49:26.171Z,99.90
2018-09-12T05:51:54.441Z,99.90
2018-09-12T05:54:22.714Z,99.90
2018-09-12T05:56:50.991Z,99.90
2018-09-12T05:59:19.286Z,99.90
2018-09-12T06:01:47.534Z,99.90
2018-09-12T06:04:15.803Z,99.90
2018-09-12T06:06:44.172Z,99.90
2018-09-12T06:09:12.439Z,99.90
2018-09-12T06:11:40.690Z,99.90
2018-09-12T06:14:09.070Z,99.90
2018-09-12T06:16:37.328Z,99.90
2018-09-12T06:19:05.607Z,99.90
2018-09-12T06:21:33.859Z,99.90
2018-09-12T06:24:02.117Z,99.90
2018-09-12T06:26:30.367Z,99.90
2018-09-12T06:28:58.716Z,99.90
2018-09-12T06:31:26.962Z,99.90
2018-09-12T06:33:55.267Z,99.90
2018-09-12T06:36:23.610Z,99.90
2018-09-12T06:38:51.867Z,99.90
2018-09-12T06:41:20.106Z,99.90
2018-09-12T06:43:48.803Z,99.90
2018-09-12T06:46:17.050Z,99.90
2018-09-12T06:48:45.444Z,99.90
2018-09-12T06:51:13.682Z,99.90
2018-09-12T06:53:41.930Z,99.90
2018-09-12T06:56:10.277Z,99.90
2018-09-12T06:58:38.553Z,99.90
2018-09-12T07:01:07.177Z,99.90
2018-09-12T07:03:35.442Z,99.90
2018-09-12T07:06:03.798Z,99.90
2018-09-12T07:08:32.073Z,99.90
2018-09-12T07:11:00.329Z,99.90
2018-09-12T07:13:28.627Z,99.90
2018-09-12T07:15:56.882Z,99.90
2018-09-12T07:18:25.134Z,99.90
2018-09-12T07:20:53.376Z,99.90
2018-09-12T07:23:21.613Z,99.90
2018-09-12T07:25:49.851Z,99.90
2018-09-12T07:28:18.117Z,99.90
2018-09-12T07:30:46.371Z,99.90
2018-09-12T07:33:14.622Z,99.90
2018-09-12T07:35:42.878Z,99.90
2018-09-12T07:38:11.140Z,99.90
2018-09-12T07:40:39.370Z,99.90
2018-09-12T07:43:07.636Z,99.90
2018-09-12T07:45:35.884Z,99.90
2018-09-12T07:48:04.152Z,99.90
2018-09-12T07:50:32.410Z,99.90
2018-09-12T07:53:00.685Z,99.90
2018-09-12T07:55:28.918Z,99.90
2018-09-12T07:57:57.187Z,99.90
2018-09-12T08:00:25.499Z,99.90
2018-09-12T08:02:53.695Z,99.90
2018-09-12T08:05:21.948Z,99.90
2018-09-12T08:07:50.206Z,99.90
2018-09-12T08:10:18.478Z,99.90
2018-09-12T08:12:46.762Z,99.90
2018-09-12T08:15:15.068Z,99.90
2018-09-12T08:17:43.435Z,99.90
2018-09-12T08:20:11.815Z,99.90
2018-09-12T08:22:40.071Z,99.90
2018-09-12T08:25:08.368Z,99.90
2018-09-12T08:27:36.615Z,99.90
2018-09-12T08:30:04.955Z,99.20
2018-09-12T08:32:33.205Z,98.20
2018-09-12T08:35:01.455Z,98.30
2018-09-12T08:37:29.726Z,97.20
2018-09-12T08:39:58.009Z,96.60
2018-09-12T08:42:26.311Z,95.10
2018-09-12T08:44:54.669Z,95.50
2018-09-12T08:47:22.921Z,94.30
2018-09-12T08:49:51.226Z,94.00
2018-09-12T08:52:19.499Z,92.70
2018-09-12T08:54:47.782Z,90.50
2018-09-12T08:57:16.030Z,86.30
2018-09-12T08:59:44.287Z,83.60
2018-09-12T09:02:12.534Z,83.70
2018-09-12T09:04:40.909Z,79.90
2018-09-12T09:07:09.151Z,79.60
2018-09-12T09:09:37.489Z,77.00
2018-09-12T09:12:05.409Z,77.90
2018-09-12T09:14:33.669Z,75.90
2018-09-12T09:17:01.919Z,73.40
2018-09-12T09:19:30.180Z,72.00
2018-09-12T09:21:58.430Z,69.00
2018-09-12T09:24:26.707Z,68.20
2018-09-12T09:26:54.947Z,65.10
2018-09-12T09:29:23.211Z,63.80
2018-09-12T09:31:51.498Z,63.70
2018-09-12T09:34:19.829Z,62.90
2018-09-12T09:36:48.075Z,62.70
2018-09-12T09:39:16.346Z,63.20
2018-09-12T09:41:44.661Z,63.20
2018-09-12T09:44:12.918Z,63.50
2018-09-12T09:46:41.173Z,63.40
2018-09-12T09:49:09.443Z,65.50
2018-09-12T09:51:37.771Z,65.70
2018-09-12T09:54:06.039Z,65.40
2018-09-12T09:56:34.304Z,65.40
2018-09-12T09:59:02.566Z,68.30
2018-09-12T10:01:36.338Z,70.90
2018-09-12T10:04:10.061Z,73.20
2018-09-12T10:06:43.923Z,75.70
2018-09-12T10:09:17.552Z,76.50
2018-09-12T10:11:45.933Z,77.40
2018-09-12T10:14:14.166Z,78.30
2018-09-12T10:16:42.461Z,77.80
2018-09-12T10:19:10.736Z,78.40
2018-09-12T10:21:38.965Z,78.60
2018-09-12T10:24:07.299Z,78.80
2018-09-12T10:26:35.526Z,77.70
2018-09-12T10:29:03.783Z,77.40
2018-09-12T10:31:32.023Z,78.40
2018-09-12T10:34:00.266Z,78.80
2018-09-12T10:36:28.515Z,79.00
2018-09-12T10:38:56.767Z,81.00
2018-09-12T10:41:25.031Z,80.60
2018-09-12T10:43:53.514Z,81.20
2018-09-12T10:46:21.998Z,81.70
2018-09-12T10:48:50.271Z,82.00
2018-09-12T10:51:18.518Z,82.30
2018-09-12T10:53:46.830Z,82.30
2018-09-12T10:56:15.214Z,82.00
2018-09-12T10:58:43.456Z,82.00
2018-09-12T11:01:11.715Z,82.20
2018-09-12T11:03:39.944Z,82.90
2018-09-12T11:06:08.418Z,84.20
2018-09-12T11:08:36.650Z,83.20
2018-09-12T11:11:04.962Z,83.10
2018-09-12T11:13:33.451Z,83.20
2018-09-12T11:16:01.733Z,83.90
2018-09-12T11:18:29.989Z,83.70
2018-09-12T11:20:58.261Z,83.80
2018-09-12T11:23:26.649Z,83.70
2018-09-12T11:25:55.052Z,84.50
2018-09-12T11:28:23.335Z,84.90
2018-09-12T11:30:51.582Z,85.10
2018-09-12T11:33:19.880Z,84.80
2018-09-12T11:35:48.363Z,85.20
2018-09-12T11:38:16.673Z,85.30
2018-09-12T11:40:45.023Z,86.10
2018-09-12T11:43:13.291Z,85.70
2018-09-12T11:45:41.546Z,85.70
2018-09-12T11:48:09.797Z,85.10
2018-09-12T11:50:38.066Z,85.70
2018-09-12T11:53:06.408Z,85.70
2018-09-12T11:55:34.879Z,85.80
2018-09-12T11:58:03.047Z,86.30
2018-09-12T12:00:31.343Z,85.70
2018-09-12T12:02:59.577Z,85.80
2018-09-12T12:05:27.899Z,85.90
2018-09-12T12:07:56.161Z,85.70
2018-09-12T12:10:24.459Z,83.70
2018-09-12T12:12:52.677Z,83.50
2018-09-12T12:15:21.040Z,84.00
2018-09-12T12:17:49.248Z,83.80
2018-09-12T12:20:17.514Z,83.20
2018-09-12T12:22:45.746Z,83.80
2018-09-12T12:25:13.990Z,83.20
2018-09-12T12:27:42.262Z,84.00
2018-09-12T12:30:10.522Z,84.60
2018-09-12T12:32:38.750Z,83.10
2018-09-12T12:35:07.028Z,83.40
2018-09-12T12:37:35.259Z,83.30
2018-09-12T12:40:03.549Z,83.20
2018-09-12T12:42:31.783Z,83.60
2018-09-12T12:45:00.030Z,83.60
2018-09-12T12:47:28.515Z,82.90
2018-09-12T12:49:56.899Z,82.00
2018-09-12T12:52:25.150Z,83.10
2018-09-12T12:54:53.554Z,83.10
2018-09-12T12:57:21.804Z,82.40
2018-09-12T12:59:50.044Z,81.30
2018-09-12T13:02:18.297Z,80.30
2018-09-12T13:04:46.539Z,79.20
2018-09-12T13:07:14.837Z,78.60
2018-09-12T13:09:43.083Z,79.30
2018-09-12T13:12:11.394Z,78.50
2018-09-12T13:14:39.662Z,77.50
2018-09-12T13:17:07.889Z,77.70
2018-09-12T13:19:36.142Z,79.00
2018-09-12T13:22:04.402Z,77.80
2018-09-12T13:24:32.641Z,78.00
2018-09-12T13:27:00.954Z,78.10
2018-09-12T13:29:29.200Z,77.30
2018-09-12T13:31:57.456Z,77.30
2018-09-12T13:34:25.798Z,77.30
2018-09-12T13:36:53.974Z,77.20
2018-09-12T13:39:22.211Z,76.90
2018-09-12T13:41:50.462Z,77.50
2018-09-12T13:44:18.741Z,78.00
2018-09-12T13:46:47.079Z,76.90
2018-09-12T13:49:15.326Z,78.00
2018-09-12T13:51:43.576Z,78.10
2018-09-12T13:54:11.806Z,77.10
2018-09-12T13:56:40.073Z,77.40
2018-09-12T13:59:08.302Z,77.60
2018-09-12T14:01:36.561Z,76.70
2018-09-12T14:04:04.791Z,76.30
2018-09-12T14:06:33.088Z,76.50
2018-09-12T14:09:01.341Z,75.90
2018-09-12T14:11:29.627Z,75.80
2018-09-12T14:13:57.921Z,76.10
2018-09-12T14:16:26.172Z,76.60
2018-09-12T14:18:54.417Z,77.10
2018-09-12T14:21:22.674Z,76.30
2018-09-12T14:23:50.928Z,76.50
2018-09-12T14:26:19.174Z,74.70
2018-09-12T14:28:47.486Z,73.50
2018-09-12T14:31:15.742Z,73.10
2018-09-12T14:33:44.023Z,73.50
2018-09-12T14:36:12.265Z,74.40
2018-09-12T14:38:40.685Z,73.10
2018-09-12T14:41:09.186Z,70.60
2018-09-12T14:43:37.562Z,69.60
2018-09-12T14:46:05.789Z,69.40
2018-09-12T14:48:34.034Z,69.10
2018-09-12T14:51:02.292Z,68.60
2018-09-12T14:53:30.568Z,68.70
2018-09-12T14:55:58.789Z,69.00
2018-09-12T14:58:27.042Z,68.20
2018-09-12T15:00:55.590Z,68.30
2018-09-12T15:03:24.101Z,68.10
2018-09-12T15:05:52.334Z,68.20
2018-09-12T15:08:20.604Z,68.10
2018-09-12T15:10:48.863Z,68.10
2018-09-12T15:13:17.128Z,67.50
2018-09-12T15:15:45.476Z,68.30
2018-09-12T15:18:13.738Z,68.30
2018-09-12T15:20:41.977Z,68.80
2018-09-12T15:23:10.226Z,68.70
2018-09-12T15:25:38.584Z,68.70
2018-09-12T15:28:06.964Z,69.10
2018-09-12T15:30:35.210Z,69.30
2018-09-12T15:33:03.519Z,69.40
2018-09-12T15:35:31.759Z,69.50
2018-09-12T15:38:00.073Z,68.80
2018-09-12T15:40:28.557Z,68.90
2018-09-12T15:42:56.831Z,69.20
2018-09-12T15:45:25.087Z,69.50
2018-09-12T15:47:53.603Z,69.80
2018-09-12T15:50:23.598Z,69.90
2018-09-12T15:52:51.941Z,69.40
2018-09-12T15:55:20.217Z,70.20
2018-09-12T15:57:48.580Z,70.60
2018-09-12T16:00:16.817Z,70.70
2018-09-12T16:02:45.267Z,69.80
2018-09-12T16:05:13.689Z,70.40
2018-09-12T16:07:41.974Z,70.40
2018-09-12T16:10:10.394Z,70.80
2018-09-12T16:12:38.831Z,70.70
2018-09-12T16:15:07.107Z,71.00
2018-09-12T16:17:35.486Z,71.20
2018-09-12T16:20:03.864Z,71.20
2018-09-12T16:22:32.166Z,71.20
2018-09-12T16:25:00.528Z,71.40
2018-09-12T16:27:28.802Z,71.70
2018-09-12T16:29:57.055Z,72.20
2018-09-12T16:32:25.390Z,72.60
2018-09-12T16:34:53.681Z,72.70
2018-09-12T16:37:21.930Z,73.10
2018-09-12T16:39:50.193Z,73.30
2018-09-12T16:42:18.466Z,73.80
2018-09-12T16:44:46.709Z,73.90
2018-09-12T16:47:15.023Z,74.40
2018-09-12T16:49:43.291Z,74.40
2018-09-12T16:52:11.577Z,74.80
2018-09-12T16:54:39.842Z,75.20
2018-09-12T16:57:08.133Z,75.30
2018-09-12T16:59:36.381Z,76.00
2018-09-12T17:02:04.688Z,76.50
2018-09-12T17:04:32.946Z,77.10
2018-09-12T17:07:01.191Z,77.50
2018-09-12T17:09:29.442Z,78.10
2018-09-12T17:11:57.682Z,78.30
2018-09-12T17:14:25.938Z,78.60
2018-09-12T17:16:54.382Z,78.80
2018-09-12T17:19:22.665Z,79.30
2018-09-12T17:21:51.215Z,79.70
2018-09-12T17:24:19.492Z,80.60
2018-09-12T17:26:47.784Z,81.70
2018-09-12T17:29:16.160Z,82.20
2018-09-12T17:31:44.952Z,82.70
2018-09-12T17:34:13.294Z,83.20
2018-09-12T17:36:41.702Z,83.60
2018-09-12T17:39:10.509Z,84.70
2018-09-12T17:41:38.903Z,85.00
2018-09-12T17:44:07.363Z,85.10
2018-09-12T17:46:35.735Z,85.60
2018-09-12T17:49:04.436Z,86.20
2018-09-12T17:51:33.961Z,86.90
2018-09-12T17:54:02.866Z,87.00
2018-09-12T17:56:31.214Z,87.60
2018-09-12T17:58:59.625Z,88.00
2018-09-12T18:01:27.962Z,89.00
2018-09-12T18:03:56.338Z,89.50
2018-09-12T18:06:24.778Z,90.00
2018-09-12T18:08:53.321Z,90.00
2018-09-12T18:11:22.792Z,90.10
2018-09-12T18:13:51.201Z,90.20
2018-09-12T18:16:19.778Z,90.50
2018-09-12T18:18:48.532Z,90.70
2018-09-12T18:21:16.832Z,91.10
2018-09-12T18:23:45.298Z,91.30
2018-09-12T18:26:13.664Z,91.50
2018-09-12T18:28:42.018Z,91.70
2018-09-12T18:31:10.304Z,91.80
2018-09-12T18:33:38.621Z,91.90
2018-09-12T18:36:06.992Z,92.10
2018-09-12T18:38:35.246Z,92.30
2018-09-12T18:41:03.658Z,92.60
2018-09-12T18:43:31.962Z,93.00
2018-09-12T18:46:00.267Z,93.30
2018-09-12T18:48:28.617Z,93.60
2018-09-12T18:50:57.093Z,93.70
2018-09-12T18:53:25.574Z,94.00
2018-09-12T18:55:53.987Z,94.30
2018-09-12T18:58:22.313Z,94.60
2018-09-12T19:00:50.667Z,95.10
2018-09-12T19:03:19.058Z,95.60
2018-09-12T19:05:47.354Z,95.50
2018-09-12T19:08:15.629Z,95.40
2018-09-12T19:10:44.007Z,95.60
2018-09-12T19:13:12.312Z,96.10
2018-09-12T19:15:40.529Z,96.50
2018-09-12T19:18:08.773Z,96.80
2018-09-12T19:20:37.147Z,97.00
2018-09-12T19:23:05.592Z,97.20
2018-09-12T19:25:33.835Z,97.40
2018-09-12T19:28:02.093Z,97.60
2018-09-12T19:30:30.385Z,97.60
2018-09-12T19:32:58.736Z,97.90
2018-09-12T19:35:26.966Z,98.10
2018-09-12T19:37:55.267Z,98.30
2018-09-12T19:40:23.671Z,98.40
2018-09-12T19:42:51.941Z,98.40
2018-09-12T19:45:20.176Z,98.60
2018-09-12T19:47:49.525Z,98.80
2018-09-12T19:50:17.871Z,99.00
2018-09-12T19:52:46.185Z,99.20
2018-09-12T19:55:14.430Z,99.20
2018-09-12T19:57:42.787Z,99.40
2018-09-12T20:00:15.599Z,99.90
2018-09-12T20:02:43.870Z,99.90
2018-09-12T20:05:12.162Z,99.90
2018-09-12T20:07:40.459Z,99.90
2018-09-12T20:10:08.735Z,99.90
2018-09-12T20:12:37.042Z,99.90
2018-09-12T20:15:05.346Z,99.90
2018-09-12T20:17:33.648Z,99.90
2018-09-12T20:20:01.894Z,99.90
2018-09-12T20:22:30.324Z,99.90
2018-09-12T20:24:58.682Z,99.90
2018-09-12T20:27:27.002Z,99.90
2018-09-12T20:29:55.388Z,99.90
2018-09-12T20:32:23.639Z,99.90
2018-09-12T20:34:52.023Z,99.90
2018-09-12T20:37:20.397Z,99.90
2018-09-12T20:39:48.661Z,99.90
2018-09-12T20:42:16.930Z,99.90
2018-09-12T20:44:45.201Z,99.90
2018-09-12T20:47:13.489Z,99.90
2018-09-12T20:49:41.762Z,99.90
2018-09-12T20:52:10.039Z,99.90
2018-09-12T20:54:38.340Z,99.90
2018-09-12T20:57:06.642Z,99.90
2018-09-12T20:59:34.931Z,99.90
2018-09-12T21:02:10.032Z,99.90
2018-09-12T21:04:38.290Z,99.90
2018-09-12T21:07:06.609Z,99.90
2018-09-12T21:09:34.865Z,99.90
2018-09-12T21:12:03.247Z,99.90
2018-09-12T21:14:31.923Z,99.90
2018-09-12T21:17:00.217Z,99.90
2018-09-12T21:19:28.469Z,99.90
2018-09-12T21:21:56.790Z,99.90
2018-09-12T21:24:25.081Z,99.90
2018-09-12T21:26:53.345Z,99.90
2018-09-12T21:29:21.617Z,99.90
2018-09-12T21:31:49.885Z,99.90
2018-09-12T21:34:18.260Z,99.90
2018-09-12T21:36:46.538Z,99.90
2018-09-12T21:39:14.784Z,99.90
2018-09-12T21:41:44.024Z,99.90
2018-09-12T21:44:12.297Z,99.90
2018-09-12T21:46:40.678Z,99.90
2018-09-12T21:49:08.936Z,99.90
2018-09-12T21:51:37.335Z,99.90
2018-09-12T21:54:05.726Z,99.90
2018-09-12T21:56:35.165Z,99.90
2018-09-12T21:59:04.725Z,99.90
2018-09-12T22:01:34.037Z,99.90
2018-09-12T22:04:02.420Z,99.90
2018-09-12T22:06:30.795Z,99.90
2018-09-12T22:08:59.241Z,99.90
2018-09-12T22:11:27.492Z,99.90
2018-09-12T22:13:56.642Z,99.90
2018-09-12T22:16:25.010Z,99.90
2018-09-12T22:18:53.291Z,99.90
2018-09-12T22:21:21.539Z,99.90
2018-09-12T22:23:49.803Z,99.90
2018-09-12T22:26:18.045Z,99.90
2018-09-12T22:28:46.328Z,99.90
2018-09-12T22:31:14.598Z,99.90
2018-09-12T22:33:42.887Z,99.90
2018-09-12T22:36:11.173Z,99.90
2018-09-12T22:38:39.441Z,99.90
2018-09-12T22:41:07.797Z,99.90
2018-09-12T22:43:36.046Z,99.90
2018-09-12T22:46:04.302Z,99.90
2018-09-12T22:48:32.841Z,99.90
2018-09-12T22:51:01.535Z,99.90
2018-09-12T22:53:30.008Z,99.90
2018-09-12T22:55:58.591Z,99.90
2018-09-12T22:58:26.852Z,99.90
2018-09-12T23:00:55.094Z,99.90
2018-09-12T23:03:23.353Z,99.90
2018-09-12T23:05:51.702Z,99.90
2018-09-12T23:08:19.953Z,99.90
2018-09-12T23:10:48.308Z,99.90
2018-09-12T23:13:16.555Z,99.90
2018-09-12T23:15:44.897Z,99.90
2018-09-12T23:18:13.306Z,99.90
2018-09-12T23:20:41.541Z,99.90
2018-09-12T23:23:09.822Z,99.90
2018-09-12T23:25:38.082Z,99.90
2018-09-12T23:28:06.358Z,99.90
2018-09-12T23:30:34.655Z,99.90
2018-09-12T23:33:02.930Z,99.90
2018-09-12T23:35:31.206Z,99.90
2018-09-12T23:37:59.486Z,99.90
2018-09-12T23:40:27.802Z,99.90
2018-09-12T23:42:56.066Z,99.90
2018-09-12T23:45:24.517Z,99.90
2018-09-12T23:47:52.842Z,99.90
2018-09-12T23:50:21.070Z,99.90
2018-09-12T23:52:49.349Z,99.90
2018-09-12T23:55:17.606Z,99.90
2018-09-12T23:57:45.890Z,99.90
